Ana Sayfa
METAR-TAF:

METAR-TAF

Havaalanları :

Georgetown Municipal Airport

Georgetown, Teksas, Amerika Birleşik Devletleri

Enlem: 30-41N, Boylam: 097-41W, yükseklik: 240 m

Güncel hava durumu gözlemi

Rapor saat 05:56 UTC de 47 dakika önce yapıldı.
Rüzgar güneydoğudan 9 kt ve 17 kt'a kadar ani rüzgarlar
Sıcaklık 13°C
Nem 94%
Basınç 1011 hPa
Görüş mesafesi: 16.1 km
1000 ft yükseklikte parçalı çok bulutlu
11000 ft yükseklikte parçalı çok bulutlu

METAR: KGTU 280556Z AUTO 14009G17KT 10SM BKN010 BKN110 13/12 A2986 RMK AO2 CIG 008V012 PRESFR SLP112 T01330117 10144 20122 401830044 58027

Saat: 00:43 (06:43 UTC)


TAF: eksik

4.000'den fazla havaalanı için hava durumu gözlemleri ve tahminleri (METAR ve TAF raporları).

Kullanılabilir istasyonlar harita üzerinde sarı ve kırmızı noktalarla gösterilir.

İstasyonun adını görmek için fareyi noktanın üzerinde gezdirin.

Sonrasında hava gözlem ve tahminlerini görmek için tıklayın.

Haritayı değiştirmek için: yaklaştırmak için siyah artı işaretli yeşil düğmeye ve uzaklaştırmak için de eksi işaretli düğmeye hızla tıklayın; bitişik haritalar için yeşil okları kullanın.


METAR-TAF: